Time;durP1;ratioP1;P1;durP2;ratioP2;P2;SDS_P1;SDS_P2;PMS_P1;PMS_P2;Temp;Humidity;BMP_temperature;BMP_pressure;BME280_temperature;BME280_humidity;BME280_pressure;Samples;Min_cycle;Max_cycle;Signal;HPM_P1;HPM_P2
2023/09/14 00:01:31;;;;;;;1999.90;999.90;;;;;;;12.78;100.00;102243.22;10458211;28;20045;-72
2023/09/14 00:06:33;;;;;;;1999.90;999.90;;;;;;;12.80;100.00;102244.00;10458705;28;20055;-72
2023/09/14 00:11:36;;;;;;;1999.90;999.90;;;;;;;12.97;100.00;102243.25;10457356;28;20048;-72
2023/09/14 00:16:38;;;;;;;1999.90;999.90;;;;;;;12.91;100.00;102250.56;10458380;28;20200;-72
2023/09/14 00:21:42;;;;;;;1999.90;999.90;;;;;;;13.10;100.00;102248.84;10458065;28;20056;-72
2023/09/14 00:26:44;;;;;;;1999.90;999.90;;;;;;;13.07;100.00;102242.88;10457977;28;20140;-72
2023/09/14 00:31:47;;;;;;;1999.90;999.90;;;;;;;13.17;100.00;102244.16;10457412;28;20131;-72
2023/09/14 00:36:49;;;;;;;1999.90;999.90;;;;;;;13.16;100.00;102240.69;10456455;28;20117;-72
2023/09/14 00:41:51;;;;;;;1999.90;999.90;;;;;;;13.29;100.00;102250.63;10457375;28;20245;-72
2023/09/14 00:46:54;;;;;;;1999.90;999.90;;;;;;;13.30;100.00;102232.16;10456142;28;20136;-72
2023/09/14 00:51:56;;;;;;;1999.90;999.90;;;;;;;13.27;100.00;102245.44;10455393;28;20128;-72
2023/09/14 00:56:59;;;;;;;1999.90;999.90;;;;;;;13.48;100.00;102259.44;10456307;28;20052;-72
2023/09/14 01:02:03;;;;;;;1999.90;999.90;;;;;;;13.45;100.00;102248.16;10454855;28;20045;-72
2023/09/14 01:07:06;;;;;;;1999.90;999.90;;;;;;;13.28;100.00;102249.78;10455659;28;20099;-72
2023/09/14 01:12:08;;;;;;;1999.90;999.90;;;;;;;13.41;100.00;102241.38;10456695;28;20049;-72
2023/09/14 01:17:21;;;;;;;1999.90;999.90;;;;;;;13.55;100.00;102238.94;10455461;28;20049;-72
2023/09/14 01:22:45;;;;;;;1999.90;999.90;;;;;;;13.59;100.00;102242.28;10455326;28;20045;-72
2023/09/14 01:27:48;;;;;;;1999.90;999.90;;;;;;;13.48;100.00;102241.03;10455368;28;20083;-72
2023/09/14 01:32:50;;;;;;;1999.90;999.90;;;;;;;13.52;100.00;102233.81;10455815;28;20166;-71
2023/09/14 01:37:54;;;;;;;1999.90;999.90;;;;;;;13.51;100.00;102240.00;10455079;28;20053;-72
2023/09/14 01:42:56;;;;;;;1999.90;999.90;;;;;;;13.45;100.00;102246.41;10454273;28;20401;-72
2023/09/14 01:48:01;;;;;;;1999.90;999.90;;;;;;;13.53;100.00;102240.78;10455448;28;20061;-72
2023/09/14 01:53:04;;;;;;;1999.90;999.90;;;;;;;13.42;100.00;102241.28;10455389;28;20429;-72
2023/09/14 01:58:06;;;;;;;1999.90;999.90;;;;;;;13.32;100.00;102240.84;10454667;28;20048;-71
2023/09/14 02:03:09;;;;;;;1999.90;999.90;;;;;;;13.14;100.00;102236.41;10455055;28;20056;-72
2023/09/14 02:08:11;;;;;;;1999.90;999.90;;;;;;;13.16;100.00;102240.69;10455630;28;20063;-72
2023/09/14 02:13:13;;;;;;;1999.90;999.90;;;;;;;13.07;100.00;102232.34;10459136;28;20136;-72
2023/09/14 02:18:16;;;;;;;1999.90;999.90;;;;;;;12.79;100.00;102228.31;10462358;28;20511;-71
2023/09/14 02:23:18;;;;;;;1999.90;999.90;;;;;;;12.62;100.00;102227.28;10462119;28;20053;-71
2023/09/14 02:28:21;;;;;;;1999.90;999.90;;;;;;;12.52;100.00;102230.38;10460775;28;20127;-71
2023/09/14 02:33:23;;;;;;;1999.90;999.90;;;;;;;12.53;100.00;102226.81;10460621;28;20131;-71
2023/09/14 02:38:26;;;;;;;1999.90;999.90;;;;;;;12.36;100.00;102223.13;10444659;28;20080;-71
2023/09/14 02:43:28;;;;;;;1999.90;999.90;;;;;;;12.16;100.00;102223.97;10461979;28;20053;-71
2023/09/14 02:48:30;;;;;;;1999.90;999.90;;;;;;;12.10;100.00;102213.72;10461168;28;20139;-71
2023/09/14 02:53:33;;;;;;;1999.90;999.90;;;;;;;12.03;100.00;102213.09;10461620;28;20047;-71
2023/09/14 02:58:35;;;;;;;1999.90;999.90;;;;;;;11.99;100.00;102214.16;10443320;28;20418;-71
2023/09/14 03:03:38;;;;;;;1999.90;999.90;;;;;;;11.86;100.00;102215.53;10460492;28;20478;-71
2023/09/14 03:08:41;;;;;;;1999.90;999.90;;;;;;;11.82;100.00;102224.47;10443423;28;20144;-71
2023/09/14 03:13:43;;;;;;;1999.90;999.90;;;;;;;11.73;100.00;102230.06;10460237;28;20049;-71
2023/09/14 03:18:46;;;;;;;1999.90;999.90;;;;;;;11.73;100.00;102222.19;10460744;28;20127;-71
2023/09/14 03:23:49;;;;;;;1999.90;999.90;;;;;;;11.68;100.00;102225.88;10458901;28;20485;-71
2023/09/14 03:28:52;;;;;;;1999.90;999.90;;;;;;;11.59;100.00;102230.59;10460396;28;20099;-71
2023/09/14 03:33:54;;;;;;;1999.90;999.90;;;;;;;11.67;100.00;102228.53;10458337;28;20106;-71
2023/09/14 03:38:57;;;;;;;1999.90;999.90;;;;;;;11.47;100.00;102242.44;10459913;28;20045;-71
2023/09/14 03:43:59;;;;;;;1999.90;999.90;;;;;;;11.55;100.00;102232.50;10458994;28;20401;-71
2023/09/14 03:49:02;;;;;;;1999.90;999.90;;;;;;;11.43;100.00;102241.69;10459466;28;20053;-71
2023/09/14 03:54:05;;;;;;;1999.90;999.90;;;;;;;11.47;100.00;102235.41;10459296;28;20095;-71
2023/09/14 03:59:10;;;;;;;1999.90;999.90;;;;;;;11.49;100.00;102232.72;10459097;28;20057;-71
2023/09/14 04:04:13;;;;;;;1999.90;999.90;;;;;;;11.35;100.00;102228.03;10457063;28;20402;-71
2023/09/14 04:09:15;;;;;;;1999.90;999.90;;;;;;;11.28;100.00;102237.88;10458684;28;20057;-71
2023/09/14 04:14:18;;;;;;;1999.90;999.90;;;;;;;11.26;100.00;102230.97;10457921;28;20056;-71
2023/09/14 04:19:20;;;;;;;1999.90;999.90;;;;;;;11.30;100.00;102235.19;10456505;28;20053;-71
2023/09/14 04:24:22;;;;;;;1999.90;999.90;;;;;;;11.18;100.00;102226.03;10456851;28;20049;-71
2023/09/14 04:29:25;;;;;;;1999.90;999.90;;;;;;;11.16;100.00;102227.81;10456447;28;20049;-71
2023/09/14 04:34:27;;;;;;;1999.90;999.90;;;;;;;11.18;100.00;102228.66;10456919;28;20064;-71
2023/09/14 04:39:30;;;;;;;1999.90;999.90;;;;;;;11.15;100.00;102232.22;10457587;28;20128;-71
2023/09/14 04:44:32;;;;;;;1999.90;999.90;;;;;;;11.11;100.00;102238.50;10456742;28;20498;-71
2023/09/14 04:49:34;;;;;;;1999.90;999.90;;;;;;;10.99;100.00;102235.47;10455436;28;20056;-71
2023/09/14 04:54:37;;;;;;;1999.90;999.90;;;;;;;11.02;100.00;102236.22;10457201;28;20051;-71
2023/09/14 04:59:39;;;;;;;1999.90;999.90;;;;;;;11.09;100.00;102240.31;10457034;28;20057;-71
2023/09/14 05:04:41;;;;;;;1999.90;999.90;;;;;;;10.98;100.00;102247.72;10455640;28;20040;-71
2023/09/14 05:09:44;;;;;;;1999.90;999.90;;;;;;;11.07;100.00;102239.50;10455038;28;20490;-71
2023/09/14 05:14:46;;;;;;;1999.90;999.90;;;;;;;11.06;100.00;102244.81;10456727;28;20053;-70
2023/09/14 05:19:49;;;;;;;1999.90;999.90;;;;;;;11.21;100.00;102244.25;10456655;28;20060;-71
2023/09/14 05:24:52;;;;;;;1999.90;999.90;;;;;;;11.19;100.00;102243.44;10455205;28;20049;-71
2023/09/14 05:29:54;;;;;;;1999.90;999.90;;;;;;;11.14;100.00;102251.47;10455589;28;20053;-69
2023/09/14 05:34:57;;;;;;;1999.90;999.90;;;;;;;11.23;100.00;102252.94;10438696;28;20081;-70
2023/09/14 05:40:00;;;;;;;1999.90;999.90;;;;;;;11.40;100.00;102251.41;10455142;28;20052;-70
2023/09/14 05:45:03;;;;;;;1999.90;999.90;;;;;;;11.28;100.00;102263.22;10456001;28;20048;-70
2023/09/14 05:50:10;;;;;;;1999.90;999.90;;;;;;;11.35;100.00;102259.47;10462378;28;20049;-72
2023/09/14 05:55:12;;;;;;;1999.90;999.90;;;;;;;11.44;100.00;102271.38;10462779;28;20041;-70
2023/09/14 06:00:15;;;;;;;1999.90;999.90;;;;;;;11.50;100.00;102266.78;10463750;28;20137;-69
2023/09/14 06:05:17;;;;;;;1999.90;999.90;;;;;;;12.00;100.00;102250.00;10463531;28;20131;-72
2023/09/14 06:10:27;;;;;;;1999.90;999.90;;;;;;;12.15;100.00;102242.41;10462797;28;20057;-72
2023/09/14 06:15:30;;;;;;;1999.90;999.90;;;;;;;12.20;100.00;102237.81;10461382;28;20418;-69
2023/09/14 06:20:32;;;;;;;1999.90;999.90;;;;;;;12.22;100.00;102243.84;10462835;28;20157;-69
2023/09/14 06:25:35;;;;;;;1999.90;999.90;;;;;;;11.98;100.00;102253.59;10460830;28;20552;-72
2023/09/14 06:30:37;;;;;;;1999.90;999.90;;;;;;;12.35;100.00;102246.84;10461052;28;20148;-69
2023/09/14 06:35:40;;;;;;;1999.90;999.90;;;;;;;12.69;100.00;102242.78;10462203;28;20083;-72
2023/09/14 06:40:45;;;;;;;1999.90;999.90;;;;;;;12.80;100.00;102230.03;10462036;28;20049;-72
2023/09/14 06:45:47;;;;;;;1999.90;999.90;;;;;;;13.05;100.00;102232.41;10460736;28;20132;-69
2023/09/14 06:50:50;;;;;;;1999.90;999.90;;;;;;;13.20;100.00;102236.13;10461792;28;20057;-69
2023/09/14 06:55:53;;;;;;;1999.90;999.90;;;;;;;13.30;100.00;102237.41;10460963;28;20402;-72
2023/09/14 07:00:56;;;;;;;1999.90;999.90;;;;;;;13.47;100.00;102236.66;10459971;28;20049;-70
2023/09/14 07:05:58;;;;;;;1999.90;999.90;;;;;;;13.66;100.00;102241.91;10461374;28;20079;-70
2023/09/14 07:11:01;;;;;;;1999.90;999.90;;;;;;;13.89;100.00;102235.53;10459963;28;20049;-70
2023/09/14 07:16:03;;;;;;;1999.90;999.90;;;;;;;13.89;100.00;102238.19;10460216;28;20528;-71
2023/09/14 07:21:06;;;;;;;1999.90;999.90;;;;;;;14.19;100.00;102245.50;10459957;28;20476;-71
2023/09/14 07:26:08;;;;;;;1999.90;999.90;;;;;;;14.32;100.00;102243.09;10460463;28;20128;-70
2023/09/14 07:31:11;;;;;;;1999.90;999.90;;;;;;;14.59;100.00;102240.91;10445805;28;20057;-70
2023/09/14 07:36:13;;;;;;;1999.90;999.90;;;;;;;14.95;100.00;102242.53;10416845;28;20455;-71
2023/09/14 07:41:16;;;;;;;1999.90;999.90;;;;;;;15.31;98.96;102251.19;10418163;28;20051;-71
2023/09/14 07:46:18;;;;;;;1999.90;999.90;;;;;;;15.94;97.46;102247.75;10418290;28;20053;-71
2023/09/14 07:51:20;;;;;;;1999.90;999.90;;;;;;;16.20;95.00;102246.22;10417993;28;20050;-71
2023/09/14 07:56:23;;;;;;;1999.90;999.90;;;;;;;16.07;93.21;102261.06;10417928;28;20060;-69
2023/09/14 08:01:25;;;;;;;1999.90;999.90;;;;;;;16.29;92.95;102253.63;10417403;28;20045;-69
2023/09/14 08:06:29;;;;;;;1999.90;999.90;;;;;;;16.69;94.67;102260.97;10417607;28;20053;-70
2023/09/14 08:11:33;;;;;;;1999.90;999.90;;;;;;;16.47;91.70;102256.97;10416131;28;20051;-70
2023/09/14 08:16:35;;;;;;;1999.90;999.90;;;;;;;16.99;90.92;102266.22;10415961;28;20051;-69
2023/09/14 08:21:38;;;;;;;1999.90;999.90;;;;;;;17.73;90.78;102264.25;10416177;28;20445;-70
2023/09/14 08:26:40;;;;;;;1999.90;999.90;;;;;;;18.16;90.42;102266.78;10416892;28;20049;-70
2023/09/14 12:36:22;;;;;;;;;;;;;;;21.91;63.85;102150.25;10576562;27;20413;-68
2023/09/14 12:41:25;;;;;;;1999.90;999.90;;;;;;;21.52;61.26;102145.47;10575492;28;20018;-66
2023/09/14 12:46:27;;;;;;;1999.90;999.90;;;;;;;21.65;60.66;102140.81;10574159;28;20486;-66
2023/09/14 12:51:30;;;;;;;1999.90;999.90;;;;;;;24.52;57.68;102130.44;10575769;28;20044;-66
2023/09/14 12:56:33;;;;;;;1999.90;999.90;;;;;;;23.87;56.43;102124.03;10575592;28;20048;-67
2023/09/14 13:01:39;;;;;;;1999.90;999.90;;;;;;;24.14;54.64;102117.06;10574856;28;20130;-67
2023/09/14 13:06:41;;;;;;;1999.90;999.90;;;;;;;24.74;55.38;102111.34;10574111;28;20044;-67
2023/09/14 13:11:51;;;;;;;1999.90;999.90;;;;;;;22.99;57.33;102118.59;10557273;28;20044;-67
2023/09/14 13:16:55;;;;;;;1999.90;999.90;;;;;;;23.35;55.67;102107.41;10573738;28;20132;-67
2023/09/14 13:22:08;;;;;;;1999.90;999.90;;;;;;;24.18;54.69;102104.25;10573992;28;20055;-66
2023/09/14 13:27:10;;;;;;;1999.90;999.90;;;;;;;25.03;53.97;102104.94;10573364;28;20055;-66
2023/09/14 13:32:13;;;;;;;1999.90;999.90;;;;;;;24.01;52.78;102101.31;10573928;28;20051;-67
2023/09/14 13:37:17;;;;;;;1999.90;999.90;;;;;;;24.20;55.17;102091.56;10546553;28;20043;-67
2023/09/14 13:42:19;;;;;;;1999.90;999.90;;;;;;;24.92;53.63;102081.06;10545732;28;20048;-66
2023/09/14 13:47:21;;;;;;;1999.90;999.90;;;;;;;23.31;54.45;102074.78;10544921;28;20084;-66
2023/09/14 13:52:24;;;;;;;1999.90;999.90;;;;;;;23.04;51.97;102075.44;10544869;28;20054;-66
2023/09/14 13:57:26;;;;;;;1999.90;999.90;;;;;;;21.08;59.07;102078.00;10545142;28;20052;-66
2023/09/14 14:02:29;;;;;;;1999.90;999.90;;;;;;;20.56;62.44;102072.38;10543952;28;20040;-66
2023/09/14 14:07:31;;;;;;;1999.90;999.90;;;;;;;20.56;66.82;102067.06;10544638;28;20071;-66
2023/09/14 14:12:34;;;;;;;1999.90;999.90;;;;;;;20.45;70.46;102069.75;10543226;28;20048;-66
2023/09/14 14:17:36;;;;;;;1999.90;999.90;;;;;;;20.70;71.25;102072.16;10542943;28;20048;-66
2023/09/14 14:22:38;;;;;;;1999.90;999.90;;;;;;;21.04;69.45;102072.09;10543477;28;20055;-66
2023/09/14 14:27:42;;;;;;;1999.90;999.90;;;;;;;22.07;64.42;102063.47;10543687;28;20131;-66
2023/09/14 14:32:44;;;;;;;1999.90;999.90;;;;;;;21.78;67.11;102062.47;10542167;28;20044;-66
2023/09/14 14:37:47;;;;;;;1999.90;999.90;;;;;;;21.48;67.52;102058.75;10542715;28;20132;-66
2023/09/14 14:42:50;;;;;;;1999.90;999.90;;;;;;;21.37;66.32;102056.09;10542631;28;20127;-66
2023/09/14 14:47:52;;;;;;;1999.90;999.90;;;;;;;23.74;63.68;102046.75;10541962;28;20044;-66
2023/09/14 14:52:55;;;;;;;1999.90;999.90;;;;;;;22.14;63.57;102055.78;10542995;28;20040;-66
2023/09/14 14:57:57;;;;;;;1999.90;999.90;;;;;;;20.83;65.91;102053.41;10540989;28;20410;-66
2023/09/14 15:03:01;;;;;;;1999.90;999.90;;;;;;;22.81;59.06;102041.00;10525060;28;20078;-66
2023/09/14 15:08:03;;;;;;;1999.90;999.90;;;;;;;24.57;59.72;102042.53;10541754;28;20048;-66
2023/09/14 15:13:06;;;;;;;1999.90;999.90;;;;;;;23.60;56.56;102027.63;10541812;28;20119;-67
2023/09/14 15:18:09;;;;;;;1999.90;999.90;;;;;;;23.81;57.25;102022.13;10541164;28;20511;-67
2023/09/14 15:23:11;;;;;;;1999.90;999.90;;;;;;;24.10;55.98;102030.06;10541726;28;20059;-67
2023/09/14 15:28:13;;;;;;;1999.90;999.90;;;;;;;22.51;61.71;102030.38;10540467;28;20051;-67
2023/09/14 15:33:16;;;;;;;1999.90;999.90;;;;;;;22.75;62.83;102027.38;10539390;28;20477;-67
2023/09/14 15:38:18;;;;;;;1999.90;999.90;;;;;;;22.61;63.25;102034.78;10539915;28;20074;-67
2023/09/14 15:43:21;;;;;;;1999.90;999.90;;;;;;;22.77;62.58;102017.38;10540300;28;20476;-67
2023/09/14 15:48:23;;;;;;;1999.90;999.90;;;;;;;22.94;62.35;102011.34;10539728;28;20054;-67
2023/09/14 15:53:27;;;;;;;1999.90;999.90;;;;;;;21.59;65.91;102026.72;10540147;28;20074;-67
2023/09/14 15:58:30;;;;;;;1999.90;999.90;;;;;;;20.91;68.18;102015.50;10540445;28;20048;-67
2023/09/14 16:03:32;;;;;;;1999.90;999.90;;;;;;;21.62;66.73;102018.47;10539683;28;20404;-67
2023/09/14 16:08:34;;;;;;;1999.90;999.90;;;;;;;21.84;65.78;102009.47;10540502;28;20052;-67
2023/09/14 16:13:37;;;;;;;1999.90;999.90;;;;;;;22.21;66.09;102014.25;10538793;28;20052;-67
2023/09/14 16:18:39;;;;;;;1999.90;999.90;;;;;;;21.74;65.67;102002.38;10539580;28;20135;-67
2023/09/14 16:23:41;;;;;;;1999.90;999.90;;;;;;;21.20;70.47;102010.44;10538583;28;20079;-67
2023/09/14 16:28:44;;;;;;;1999.90;999.90;;;;;;;21.68;67.30;102014.44;10540100;28;20051;-66
2023/09/14 16:33:47;;;;;;;1999.90;999.90;;;;;;;19.38;81.41;102011.47;10538844;28;20052;-66
2023/09/14 16:38:49;;;;;;;1999.90;999.90;;;;;;;18.85;88.48;102008.38;10539891;28;20134;-66
2023/09/14 16:43:52;;;;;;;1999.90;999.90;;;;;;;18.85;89.01;102011.03;10538835;28;20056;-66
2023/09/14 16:49:23;;;;;;;1999.90;999.90;;;;;;;18.83;90.49;102008.47;10538851;28;20511;-65
2023/09/14 16:54:30;;;;;;;1999.90;999.90;;;;;;;18.31;96.94;102018.34;10539472;28;20048;-65
2023/09/14 16:59:36;;;;;;;1999.90;999.90;;;;;;;17.94;100.00;102022.75;10539391;28;20097;-65
2023/09/14 17:04:41;;;;;;;1999.90;999.90;;;;;;;17.65;100.00;102020.22;10539165;28;20048;-65
2023/09/14 17:09:44;;;;;;;1999.90;999.90;;;;;;;17.58;100.00;102021.59;10542632;28;20052;-65
2023/09/14 17:14:47;;;;;;;1999.90;999.90;;;;;;;17.39;100.00;102022.00;10547143;28;20089;-66
2023/09/14 17:19:49;;;;;;;1999.90;999.90;;;;;;;17.25;100.00;102029.06;10546716;28;20055;-65
2023/09/14 17:24:52;;;;;;;1999.90;999.90;;;;;;;17.12;100.00;102022.88;10546464;28;20056;-66
2023/09/14 17:29:54;;;;;;;1999.90;999.90;;;;;;;16.81;100.00;102014.28;10545710;28;20154;-66
2023/09/14 17:34:56;;;;;;;1999.90;999.90;;;;;;;16.57;100.00;102015.84;10545274;28;20051;-66
2023/09/14 17:39:59;;;;;;;1999.90;999.90;;;;;;;16.52;100.00;102010.84;10545271;28;20428;-67
2023/09/14 17:45:03;;;;;;;1999.90;999.90;;;;;;;16.33;100.00;102000.59;10545888;28;20048;-67
2023/09/14 17:50:06;;;;;;;1999.90;999.90;;;;;;;16.19;100.00;102009.38;10545553;28;20052;-67
2023/09/14 17:55:09;;;;;;;1999.90;999.90;;;;;;;16.19;100.00;102008.50;10545327;28;20060;-67
2023/09/14 18:00:14;;;;;;;1999.90;999.90;;;;;;;16.03;100.00;102013.91;10545189;28;20052;-67
2023/09/14 18:05:16;;;;;;;1999.90;999.90;;;;;;;15.79;100.00;102006.53;10544892;28;20040;-67
2023/09/14 18:10:19;;;;;;;1999.90;999.90;;;;;;;15.51;100.00;102020.47;10544664;28;20048;-67
2023/09/14 18:15:22;;;;;;;1999.90;999.90;;;;;;;15.42;100.00;102017.44;10544568;28;20043;-67
2023/09/14 18:20:24;;;;;;;1999.90;999.90;;;;;;;15.34;100.00;102026.75;10544291;28;20066;-66
2023/09/14 18:25:27;;;;;;;1999.90;999.90;;;;;;;15.11;100.00;102030.69;10544111;28;20048;-66
2023/09/14 18:30:29;;;;;;;1999.90;999.90;;;;;;;15.08;100.00;102036.13;10543991;28;20055;-67
2023/09/14 18:35:32;;;;;;;1999.90;999.90;;;;;;;14.91;100.00;102042.38;10543095;28;20059;-67
2023/09/14 18:40:34;;;;;;;1999.90;999.90;;;;;;;14.75;100.00;102050.28;10543507;28;20054;-67
2023/09/14 18:45:36;;;;;;;1999.90;999.90;;;;;;;14.66;100.00;102049.03;10543187;28;20083;-66
2023/09/14 18:50:39;;;;;;;1999.90;999.90;;;;;;;14.66;100.00;102054.28;10543128;28;20105;-66
2023/09/14 18:55:50;;;;;;;1999.90;999.90;;;;;;;14.51;100.00;102061.22;10542330;28;20535;-66
2023/09/14 19:00:55;;;;;;;1999.90;999.90;;;;;;;14.58;100.00;102054.66;10541160;28;20051;-66
2023/09/14 19:05:58;;;;;;;1999.90;999.90;;;;;;;14.43;100.00;102053.69;10541875;28;20477;-66
2023/09/14 19:11:01;;;;;;;1999.90;999.90;;;;;;;14.28;100.00;102065.91;10541689;28;20401;-66
2023/09/14 19:16:03;;;;;;;1999.90;999.90;;;;;;;14.34;100.00;102070.03;10542170;28;20044;-66
2023/09/14 19:21:08;;;;;;;1999.90;999.90;;;;;;;14.20;100.00;102065.44;10541272;28;20119;-66
2023/09/14 19:26:10;;;;;;;1999.90;999.90;;;;;;;14.12;100.00;102070.25;10541892;28;20075;-66
2023/09/14 19:31:16;;;;;;;1999.90;999.90;;;;;;;14.06;100.00;102071.44;10540320;28;20052;-66
2023/09/14 19:36:23;;;;;;;1999.90;999.90;;;;;;;13.93;100.00;102065.13;10540495;28;20055;-66
2023/09/14 19:41:25;;;;;;;1999.90;999.90;;;;;;;13.96;100.00;102059.69;10541184;28;20058;-67
2023/09/14 19:46:29;;;;;;;1999.90;999.90;;;;;;;14.11;100.00;102060.69;10540241;28;20111;-66
2023/09/14 19:51:32;;;;;;;1999.90;999.90;;;;;;;13.91;100.00;102069.63;10540306;28;20505;-66
2023/09/14 19:56:34;;;;;;;1999.90;999.90;;;;;;;13.78;100.00;102063.25;10539594;28;20044;-66
2023/09/14 20:01:38;;;;;;;1999.90;999.90;;;;;;;13.79;100.00;102060.56;10540540;28;20054;-66
2023/09/14 20:06:41;;;;;;;1999.90;999.90;;;;;;;13.73;100.00;102067.00;10540394;28;20051;-66
2023/09/14 20:11:43;;;;;;;1999.90;999.90;;;;;;;13.70;100.00;102059.25;10540300;28;20051;-66
2023/09/14 20:16:46;;;;;;;1999.90;999.90;;;;;;;13.46;100.00;102061.31;10540102;28;20047;-66
2023/09/14 20:21:48;;;;;;;1999.90;999.90;;;;;;;13.46;100.00;102058.69;10540238;28;20048;-66
2023/09/14 20:26:50;;;;;;;1999.90;999.90;;;;;;;13.49;100.00;102060.31;10539287;28;20499;-67
2023/09/14 20:31:53;;;;;;;1999.90;999.90;;;;;;;13.51;100.00;102061.09;10539155;28;20059;-66
2023/09/14 20:36:55;;;;;;;1999.90;999.90;;;;;;;13.53;100.00;102051.34;10538959;28;20052;-66
2023/09/14 20:41:58;;;;;;;1999.90;999.90;;;;;;;13.47;100.00;102055.13;10539615;28;20044;-66
2023/09/14 20:47:00;;;;;;;1999.90;999.90;;;;;;;13.35;100.00;102050.50;10546452;28;20048;-66
2023/09/14 20:52:02;;;;;;;1999.90;999.90;;;;;;;13.26;100.00;102045.63;10546701;28;20087;-66
2023/09/14 20:57:06;;;;;;;1999.90;999.90;;;;;;;13.25;100.00;102051.84;10546507;28;20055;-66
2023/09/14 21:02:09;;;;;;;1999.90;999.90;;;;;;;13.19;100.00;102042.44;10547491;28;20101;-66
2023/09/14 21:07:11;;;;;;;1999.90;999.90;;;;;;;13.09;100.00;102047.28;10547346;28;20078;-66
2023/09/14 21:12:13;;;;;;;1999.90;999.90;;;;;;;13.02;100.00;102040.63;10547115;28;20056;-66
2023/09/14 21:17:16;;;;;;;1999.90;999.90;;;;;;;12.97;100.00;102047.88;10546863;28;20048;-66
2023/09/14 21:22:18;;;;;;;1999.90;999.90;;;;;;;12.85;100.00;102053.75;10545923;28;20151;-66
2023/09/14 21:27:20;;;;;;;1999.90;999.90;;;;;;;12.78;100.00;102053.16;10546450;28;20054;-66
2023/09/14 21:32:23;;;;;;;1999.90;999.90;;;;;;;12.75;100.00;102042.78;10545996;28;20055;-66
2023/09/14 21:37:25;;;;;;;1999.90;999.90;;;;;;;12.85;100.00;102036.19;10545426;28;20064;-66
2023/09/14 21:42:27;;;;;;;1999.90;999.90;;;;;;;12.82;100.00;102036.31;10545371;28;20509;-66
2023/09/14 21:47:30;;;;;;;1999.90;999.90;;;;;;;12.72;100.00;102046.41;10544588;28;20214;-66
2023/09/14 21:52:33;;;;;;;1999.90;999.90;;;;;;;12.60;100.00;102036.47;10544927;28;20455;-66
2023/09/14 21:57:35;;;;;;;1999.90;999.90;;;;;;;12.67;100.00;102037.88;10544208;28;20187;-66
2023/09/14 22:02:38;;;;;;;1999.90;999.90;;;;;;;12.54;100.00;102039.38;10543902;28;20063;-66
2023/09/14 22:07:40;;;;;;;1999.90;999.90;;;;;;;12.49;100.00;102034.34;10544906;28;20055;-66
2023/09/14 22:12:42;;;;;;;1999.90;999.90;;;;;;;12.50;100.00;102035.19;10544095;28;20511;-66
2023/09/14 22:17:45;;;;;;;1999.90;999.90;;;;;;;12.50;100.00;102043.06;10543817;28;20054;-66
2023/09/14 22:22:51;;;;;;;1999.90;999.90;;;;;;;12.35;100.00;102037.59;10544180;28;20048;-66
2023/09/14 22:27:53;;;;;;;1999.90;999.90;;;;;;;12.25;100.00;102039.78;10543659;28;20522;-65
2023/09/14 22:32:56;;;;;;;1999.90;999.90;;;;;;;12.29;100.00;102037.00;10543013;28;20521;-66
2023/09/14 22:37:58;;;;;;;1999.90;999.90;;;;;;;12.26;100.00;102030.97;10542498;28;20089;-66
2023/09/14 22:43:02;;;;;;;1999.90;999.90;;;;;;;12.28;100.00;102033.53;10543415;28;20048;-66
2023/09/14 22:48:04;;;;;;;1999.90;999.90;;;;;;;12.25;100.00;102031.91;10543254;28;20052;-66
2023/09/14 22:53:08;;;;;;;1999.90;999.90;;;;;;;12.20;100.00;102019.88;10543079;28;20122;-66
2023/09/14 22:58:10;;;;;;;1999.90;999.90;;;;;;;12.07;100.00;102022.22;10542203;28;20485;-66
2023/09/14 23:03:12;;;;;;;1999.90;999.90;;;;;;;12.06;100.00;102018.72;10541934;28;20043;-66
2023/09/14 23:08:15;;;;;;;1999.90;999.90;;;;;;;12.09;100.00;102007.25;10541586;28;20052;-66
2023/09/14 23:13:18;;;;;;;1999.90;999.90;;;;;;;12.11;100.00;102010.66;10541633;28;20048;-65
2023/09/14 23:18:20;;;;;;;1999.90;999.90;;;;;;;12.04;100.00;102006.63;10540299;28;20400;-66
2023/09/14 23:23:22;;;;;;;1999.90;999.90;;;;;;;12.06;100.00;102008.22;10541803;28;20048;-66
2023/09/14 23:28:25;;;;;;;1999.90;999.90;;;;;;;12.02;100.00;102018.94;10541851;28;20059;-66
2023/09/14 23:33:34;;;;;;;1999.90;999.90;;;;;;;12.03;100.00;102012.78;10539490;28;20055;-66
2023/09/14 23:38:36;;;;;;;1999.90;999.90;;;;;;;12.08;100.00;102005.53;10541443;28;20080;-66
2023/09/14 23:43:42;;;;;;;1999.90;999.90;;;;;;;11.98;100.00;102015.59;10541121;28;20127;-66
2023/09/14 23:48:45;;;;;;;1999.90;999.90;;;;;;;11.87;100.00;102013.41;10541117;28;20058;-66
2023/09/14 23:53:48;;;;;;;1999.90;999.90;;;;;;;11.97;100.00;102011.28;10540816;28;20044;-66
2023/09/14 23:58:51;;;;;;;1999.90;999.90;;;;;;;11.84;100.00;102008.28;10540011;28;20480;-67
